59.9F
Current conditions from King Hill
Updated every 5 minutes
 
  Wednesday August 4, 2021

Observations for Westford

Westford

44° 37' 38"N, 73° 02' 29"W, Elevation 850 ft.
Eastern Time

Hourly observations for the last 72 hours

Date Time Temperature (°F) Humi-
dity

(%)
Wind
(mph)
Pressure Rain (in)
Air Dew 6 Hour 1 Hr 3 Hr 6 Hr Day
Alt
(in)
Sea
Level

(mb)
Max Min
4 22:00 60.8 58.8 93 Calm 30.11 1019.6 0.00
4 21:00 63.2 59.9 89 Calm 30.10 1019.2 0.00
4 20:00 69.9 64.8 80.4 69.9 84 Calm 30.09 1018.9 0.00
4 19:00 76.9 69.1 77 Calm 30.09 1018.9 0.00
4 18:00 76.5 67.2 73 SW 0 G 2 30.08 1018.7 0.00
4 17:00 78.8 66.5 66 SW 1 G 4 30.09 1018.9 0.00
4 16:00 80.1 65.0 60 SW 1 G 4 30.09 1019.2 0.00
4 15:00 79.9 62.8 56 S 1 G 6 30.10 1019.3 0.00
4 14:00 77.9 64.3 78.5 58.2 63 SW 0 G 6 30.10 1019.5 0.00
4 13:00 77.8 62.8 60 SSE 0 G 4 30.12 1019.9 0.00
4 12:00 76.1 65.2 69 SSE 0 G 3 30.13 1020.4 0.00
4 11:00 73.7 62.9 69 S 0 G 5 30.12 1020.1 0.00
4 10:00 70.7 62.0 74 Calm 30.12 1020.0 0.00
4 09:00 65.1 60.1 84 SSE 2 G 8 30.11 1019.8 0.00
4 08:00 58.2 57.6 58.2 52.4 98 Calm 30.10 1019.3 0.00
4 07:00 54.3 53.7 98 Calm 30.09 1018.9 0.00
4 06:00 52.5 51.7 97 Calm 30.07 1018.4 0.00
4 05:00 53.3 52.2 96 Calm 30.06 1017.9 0.00
4 04:00 54.0 52.9 96 Calm 30.05 1017.6 0.00
4 03:00 54.4 53.0 95 Calm 30.05 1017.7 0.00
4 02:00 55.5 53.8 67.2 55.5 94 Calm 30.05 1017.6 0.00
4 01:00 57.0 55.0 93 Calm 30.04 1017.4 0.00
4 00:00 57.6 55.9 94 S 0 G 4 30.04 1017.3 0.00
3 23:00 58.0 56.3 94 Calm 30.03 1017.1 0.00
3 22:00 59.3 57.0 92 Calm 30.03 1016.8 0.00
3 21:00 61.5 57.9 88 Calm 30.02 1016.5 0.00
3 20:00 67.2 60.5 78.0 67.2 79 S 0 G 5 29.99 1015.7 0.00
3 19:00 73.7 62.1 67 S 0 G 5 29.99 1015.6 0.00
3 18:00 75.4 61.0 61 SSW 2 G 7 29.99 1015.4 0.00
3 17:00 77.2 61.8 59 SW 1 G 5 29.99 1015.6 0.00
3 16:00 77.4 62.0 59 S 2 G 14 29.99 1015.7 0.00
3 15:00 77.7 61.3 57 S 3 G 10 30.01 1016.2 0.00
3 14:00 77.0 63.0 77.0 60.2 62 S 3 G 8 30.02 1016.5 0.00
3 13:00 75.7 61.3 61 SW 3 G 9 30.02 1016.8 0.00
3 12:00 74.3 60.0 61 S 4 G 11 30.05 1017.6 0.00
3 11:00 72.4 61.3 68 S 2 G 8 30.05 1017.7 0.00
3 10:00 69.1 59.3 71 S 2 G 7 30.05 1017.6 0.00
3 09:00 65.4 58.0 77 S 1 G 13 30.04 1017.4 0.00
3 08:00 60.2 55.4 60.2 51.3 84 S 3 G 9 30.04 1017.3 0.00
3 07:00 53.4 51.1 92 S 1 G 6 30.04 1017.2 0.00
3 06:00 52.4 50.1 92 S 1 G 9 30.03 1017.0 0.00
3 05:00 52.4 50.1 92 S 0 G 6 30.02 1016.6 0.00
3 04:00 52.7 50.7 93 SSE 1 G 8 30.01 1016.5 0.00
3 03:00 51.4 50.0 95 S 1 G 4 30.02 1016.7 0.00
3 02:00 52.1 50.7 61.1 51.8 95 S 1 G 3 30.02 1016.6 0.00
3 01:00 52.0 50.6 95 S 1 G 5 30.02 1016.7 0.00
3 00:00 52.7 51.0 94 SW 0 G 1 30.01 1016.2 0.37
2 23:00 54.5 52.5 93 Calm 29.99 1015.7 0.37
2 22:00 54.9 52.0 90 SW 0 G 2 29.98 1015.4 0.37
2 21:00 55.7 52.8 90 Calm 29.98 1015.2 0.37
2 20:00 61.1 55.9 72.2 61.1 83 Calm 29.97 1014.8 0.37
2 19:00 66.4 55.9 69 W 1 G 7 29.95 1014.2 0.37
2 18:00 68.2 55.1 63 W 5 G 13 29.93 1013.6 0.37
2 17:00 69.3 58.3 68 WSW 5 G 14 29.92 1013.3 0.37
2 16:00 69.2 58.6 69 W 3 G 12 29.91 1013.0 0.37
2 15:00 69.4 59.6 71 WNW 1 G 10 29.91 1012.8 0.37
2 14:00 71.4 62.7 71.4 57.9 74 W 1 G 11 29.90 1012.6 0.01 0.37
2 13:00 68.6 60.7 76 W 1 G 15 29.90 1012.6 0.37
2 12:00 63.9 60.9 90 W 0 G 11 29.90 1012.6 0.37
2 11:00 62.7 61.2 95 WSW 0 G 7 29.89 1012.3 0.01 0.01 0.37
2 10:00 59.9 59.3 98 WSW 1 G 7 29.88 1011.8 0.36
2 09:00 58.6 58.0 98 WSW 1 G 12 29.86 1011.1 0.36
2 08:00 58.5 57.9 58.5 56.4 98 WSW 0 G 5 29.84 1010.7 0.03 0.10 0.23 0.36
2 07:00 57.8 57.2 98 W 0 G 4 29.83 1010.1 0.05 0.33
2 06:00 56.9 56.1 97 Calm 29.81 1009.6 0.02 0.28
2 05:00 56.8 56.0 97 Calm 29.80 1009.1 0.01 0.13 0.26
2 04:00 56.5 55.7 97 Calm 29.79 1008.9 0.05 0.25
2 03:00 56.8 56.0 97 Calm 29.79 1008.9 0.07 0.20
2 02:00 57.1 56.3 58.4 57.1 97 Calm 29.79 1008.9 0.07 0.17 0.22 0.13
2 01:00 57.3 56.5 97 Calm 29.80 1009.1 0.06 0.06
2 00:00 57.5 56.7 97 Calm 29.80 1009.2 0.04 0.46
1 23:00 57.9 57.1 97 Calm 29.82 1009.7 0.03 0.05 0.42

Data generated by WxSolution Version 1.9.1.7, Build 2018.11.24.


 
 
Current Radar Loop:

Copyright © WestfordWeather.net 2007-2021. All rights reserved.